Aérodrome :
LOGIN :

S'inscrire | Disclaimer

   EN    FR    IT 

 










Légende :    VFR   VFR Marginal   IFR   IFR Intensif   IFR Très Intensif
Visi : 
Plafond : 
>= 8 km
>= 3000ft
5 à 8 km
1000 à 3000 ft
1500m à 5 km
500 à 1000 ft
800 à 1500m
200 à 500 ft
< 800m
< 200 ft
Symboles :   Orages  Brouillard  Fortes neiges  Fortes précipitations  Vent > 20 kt
SIGMETs :   Divers  Orages  Givrage  Turbulence  Onde Orograph.  Cendres Volcan.







- Altitude de l'aérodrome : 240 ft
- Code IATA : VLC


LEVC - Valencia Manises

DERNIER METAR :
  • 102330Z 30004KT 9999 FEW020 08/07 Q1026 NOSIG

METARs EXPIRÉS :
  • 102300Z 27004KT 9999 SCT020 08/08 Q1027 NOSIG
  • 102230Z VRB01KT 9999 FEW020 09/08 Q1027 NOSIG
  • 102200Z 29004KT CAVOK 08/08 Q1027 NOSIG
  • 102130Z 31003KT CAVOK 09/08 Q1027 NOSIG
  • 102100Z 29002KT CAVOK 09/08 Q1027 NOSIG

TAF TAF LEVC
Valide du 11 à 00h jusqu'au 12 à 00h UTC


102300Z 1100/1124 28005KT 9999 FEW030 TX17/1112Z TN06/1106Z
BECMG 1110/1112 12006KT
Pas de NOTAMs connus pour ce terrain.



MET'MAP, la Météo Aéronautique d'un coup d'oeil ! - Copyright ORBIFLY Décembre 2007 - Disclaimer

ORBIFLY MET'MAP TEAM :

Programmation & Développement : Alexandra Zaïnal
Conception & Développement : Baudouin d'Aumeries
Co-Programmation & Développement : Marc-Olivier Méhu
Soutien technique & logistique : Manuel Goepfert

Contact : metmap@orbifly.com




SOURCES & CREDITS :

   NOAA